Time;durP1;ratioP1;P1;durP2;ratioP2;P2;SDS_P1;SDS_P2;PMS_P1;PMS_P2;Temp;Humidity;BMP_temperature;BMP_pressure;BME280_temperature;BME280_humidity;BME280_pressure;Samples;Min_cycle;Max_cycle;Signal;HPM_P1;HPM_P2
2023/06/27 00:00:41;;;;;;;;;;;20.60;71.30;;;-151.14;100.00;62537.16;5071727;28;20132;-82
2023/06/27 00:03:11;;;;;;;;;;;20.60;71.40;;;-151.14;100.00;62537.16;5053308;28;19927;-82
2023/06/27 00:05:39;;;;;;;;;;;20.60;71.30;;;-151.14;100.00;62537.16;5053857;28;19920;-82
2023/06/27 00:08:07;;;;;;;;;;;20.60;71.30;;;-151.14;100.00;62537.16;5070352;28;20123;-82
2023/06/27 00:10:35;;;;;;;;;;;20.60;71.30;;;-151.14;100.00;62537.16;5080349;28;19920;-82
2023/06/27 00:13:03;;;;;;;;;;;20.60;71.30;;;-151.14;100.00;62537.16;5089935;28;19942;-82
2023/06/27 00:15:34;;;;;;;;;;;20.60;71.30;;;-151.14;100.00;62537.16;5090514;28;19926;-82
2023/06/27 00:18:06;;;;;;;;;;;20.60;71.30;;;-151.14;100.00;62537.16;5090411;28;19920;-82
2023/06/27 00:20:36;;;;;;;;;;;20.60;71.20;;;-151.14;100.00;62537.16;5073759;28;20211;-83
2023/06/27 00:23:17;;;;;;;;;;;20.60;71.30;;;-151.14;100.00;62537.16;5072990;28;19926;-82
2023/06/27 00:25:45;;;;;;;;;;;20.60;71.30;;;-151.14;100.00;62537.16;5090397;28;20200;-82
2023/06/27 00:28:13;;;;;;;;;;;20.60;71.30;;;-151.14;100.00;62537.16;5090481;28;19920;-82
2023/06/27 00:30:41;;;;;;;;;;;20.60;71.30;;;-151.14;100.00;62537.16;5090274;28;19931;-82
2023/06/27 00:33:10;;;;;;;;;;;20.60;71.20;;;-151.14;100.00;62537.16;5089638;28;19927;-82
2023/06/27 00:35:40;;;;;;;;;;;20.60;71.30;;;-151.14;100.00;62537.16;5107091;28;19942;-82
2023/06/27 00:38:08;;;;;;;;;;;20.60;71.20;;;-151.14;100.00;62537.16;5090324;28;19921;-82
2023/06/27 00:40:36;;;;;;;;;;;20.50;71.10;;;-151.14;100.00;62537.16;5089844;28;19920;-82
2023/06/27 00:43:05;;;;;;;;;;;20.50;71.00;;;-151.14;100.00;62537.16;5089555;28;19934;-82
2023/06/27 00:45:33;;;;;;;;;;;20.50;71.00;;;-151.14;100.00;62537.16;5089929;28;19920;-82
2023/06/27 00:48:02;;;;;;;;;;;20.50;71.00;;;-151.14;100.00;62537.16;5091033;28;19920;-81
2023/06/27 00:50:32;;;;;;;;;;;20.50;71.10;;;-151.14;100.00;62537.16;5073268;28;20093;-82
2023/06/27 00:53:02;;;;;;;;;;;20.50;71.10;;;-151.14;100.00;62537.16;5089287;28;19926;-82
2023/06/27 00:55:31;;;;;;;;;;;20.50;71.30;;;-151.14;100.00;62537.16;5073126;28;19942;-82
2023/06/27 00:58:00;;;;;;;;;;;20.50;71.60;;;-151.14;100.00;62537.16;5090839;28;19920;-82
2023/06/27 01:00:29;;;;;;;;;;;20.50;71.70;;;-151.14;100.00;62537.16;5073078;28;19920;-82
2023/06/27 01:02:57;;;;;;;;;;;20.50;71.60;;;-151.14;100.00;62537.16;5089373;28;19926;-82
2023/06/27 01:05:25;;;;;;;;;;;20.50;71.60;;;-151.14;100.00;62537.16;5089891;28;20230;-82
2023/06/27 01:07:56;;;;;;;;;;;20.50;71.50;;;-151.14;100.00;62537.16;5090946;28;19921;-82
2023/06/27 01:10:30;;;;;;;;;;;20.50;71.50;;;-151.14;100.00;62537.16;5106777;28;19920;-82
2023/06/27 01:13:02;;;;;;;;;;;20.50;71.40;;;-151.14;100.00;62537.16;5090379;28;19927;-82
2023/06/27 01:15:30;;;;;;;;;;;20.50;71.30;;;-151.14;100.00;62537.16;5090887;28;19926;-82
2023/06/27 01:17:58;;;;;;;;;;;20.50;71.30;;;-151.14;100.00;62537.16;5072904;28;19920;-82
2023/06/27 01:20:26;;;;;;;;;;;20.50;71.40;;;-151.14;100.00;62537.16;5072982;28;20220;-81
2023/06/27 01:23:01;;;;;;;;;;;20.50;71.40;;;-151.14;100.00;62537.16;5072160;28;19924;-82
2023/06/27 01:25:32;;;;;;;;;;;20.50;71.30;;;-151.14;100.00;62537.16;5072801;28;19920;-82
2023/06/27 01:28:00;;;;;;;;;;;20.50;71.10;;;-151.14;100.00;62537.16;5089497;28;19938;-82
2023/06/27 01:30:28;;;;;;;;;;;20.50;71.00;;;-151.14;100.00;62537.16;5089501;28;19920;-82
2023/06/27 01:32:59;;;;;;;;;;;20.40;70.80;;;-151.14;100.00;62537.16;5071943;28;19920;-82
2023/06/27 01:35:31;;;;;;;;;;;20.40;70.80;;;-151.14;100.00;62537.16;5106360;28;19927;-82
2023/06/27 01:38:02;;;;;;;;;;;20.40;70.60;;;-151.14;100.00;62537.16;5090594;28;20098;-81
2023/06/27 01:40:33;;;;;;;;;;;20.40;70.60;;;-151.14;100.00;62537.16;5089663;28;19920;-82
2023/06/27 01:43:04;;;;;;;;;;;20.40;70.70;;;-151.14;100.00;62537.16;5088787;28;20111;-82
2023/06/27 01:45:32;;;;;;;;;;;20.40;70.70;;;-151.14;100.00;62537.16;5089514;28;19927;-82
2023/06/27 01:48:00;;;;;;;;;;;20.40;70.60;;;-151.14;100.00;62537.16;5106131;28;19920;-82
2023/06/27 01:50:28;;;;;;;;;;;20.40;70.50;;;-151.14;100.00;62537.16;5089764;28;19934;-82
2023/06/27 01:52:56;;;;;;;;;;;20.40;71.50;;;-151.14;100.00;62537.16;5093269;28;19920;-83
2023/06/27 01:55:24;;;;;;;;;;;20.40;70.80;;;-151.14;100.00;62537.16;5092678;28;20120;-83
2023/06/27 01:57:53;;;;;;;;;;;20.40;70.40;;;-151.14;100.00;62537.16;5092745;28;19920;-83
2023/06/27 02:00:21;;;;;;;;;;;20.40;70.30;;;-151.14;100.00;62537.16;5093871;28;20118;-83
2023/06/27 02:02:49;;;;;;;;;;;20.40;70.40;;;-151.14;100.00;62537.16;5091966;28;20343;-82
2023/06/27 02:05:17;;;;;;;;;;;20.40;70.30;;;-151.14;100.00;62537.16;5093829;28;19920;-82
2023/06/27 02:07:45;;;;;;;;;;;20.30;70.20;;;-151.14;100.00;62537.16;5075786;28;19926;-83
2023/06/27 02:10:12;;;;;;;;;;;20.30;70.20;;;-151.14;100.00;62537.16;5075758;28;19942;-82
2023/06/27 02:12:40;;;;;;;;;;;20.30;70.20;;;-151.14;100.00;62537.16;5091948;28;19928;-82
2023/06/27 02:15:10;;;;;;;;;;;20.30;70.10;;;-151.14;100.00;62537.16;5093385;28;20111;-83
2023/06/27 02:17:38;;;;;;;;;;;20.30;70.10;;;-151.14;100.00;62537.16;5091956;28;19926;-82
2023/06/27 02:20:07;;;;;;;;;;;20.30;70.20;;;-151.14;100.00;62537.16;5091278;28;19927;-83
2023/06/27 02:22:35;;;;;;;;;;;20.30;70.20;;;-151.14;100.00;62537.16;5092691;28;19920;-83
2023/06/27 02:25:04;;;;;;;;;;;20.30;70.10;;;-151.14;100.00;62537.16;5091879;28;19920;-83
2023/06/27 02:27:32;;;;;;;;;;;20.30;70.00;;;-151.14;100.00;62537.16;5092181;28;19927;-83
2023/06/27 02:29:59;;;;;;;;;;;20.30;70.10;;;-151.14;100.00;62537.16;5092148;28;19920;-83
2023/06/27 02:32:29;;;;;;;;;;;20.30;70.30;;;-151.14;100.00;62537.16;5108626;28;19920;-83
2023/06/27 02:34:58;;;;;;;;;;;20.30;70.20;;;-151.14;100.00;62537.16;5091872;28;20200;-83
2023/06/27 02:37:26;;;;;;;;;;;20.30;70.20;;;-151.14;100.00;62537.16;5109043;28;19920;-83
2023/06/27 02:39:54;;;;;;;;;;;20.30;70.30;;;-151.14;100.00;62537.16;5093144;28;19920;-83
2023/06/27 02:42:22;;;;;;;;;;;20.20;70.10;;;-151.14;100.00;62537.16;5092433;28;19931;-82
2023/06/27 02:44:50;;;;;;;;;;;20.20;70.10;;;-151.14;100.00;62537.16;5091831;28;19926;-83
2023/06/27 02:47:20;;;;;;;;;;;20.20;70.00;;;-151.14;100.00;62537.16;5075197;28;19920;-83
2023/06/27 02:49:50;;;;;;;;;;;20.20;70.00;;;-151.14;100.00;62537.16;5093056;28;19926;-82
2023/06/27 02:52:17;;;;;;;;;;;20.20;70.00;;;-151.14;100.00;62537.16;5091359;28;19920;-82
2023/06/27 02:54:48;;;;;;;;;;;20.20;69.90;;;-151.14;100.00;62537.16;5108625;28;19927;-83
2023/06/27 02:57:17;;;;;;;;;;;20.20;69.90;;;-151.14;100.00;62537.16;5108830;28;19926;-82
2023/06/27 02:59:46;;;;;;;;;;;20.20;69.90;;;-151.14;100.00;62537.16;5074904;28;19942;-82
2023/06/27 03:02:16;;;;;;;;;;;20.20;69.90;;;-151.14;100.00;62537.16;5074103;28;19942;-83
2023/06/27 03:04:46;;;;;;;;;;;20.20;69.80;;;-151.14;100.00;62537.16;5091611;28;19927;-83
2023/06/27 03:07:16;;;;;;;;;;;20.20;69.80;;;-151.14;100.00;62537.16;5108693;28;19920;-82
2023/06/27 03:09:44;;;;;;;;;;;20.20;69.80;;;-151.14;100.00;62537.16;5091443;28;19920;-82
2023/06/27 03:12:15;;;;;;;;;;;20.20;69.90;;;-151.14;100.00;62537.16;5091025;28;19926;-83
2023/06/27 03:14:43;;;;;;;;;;;20.20;69.90;;;-151.14;100.00;62537.16;5091219;28;19920;-82
2023/06/27 03:17:12;;;;;;;;;;;20.20;69.90;;;-151.14;100.00;62537.16;5074731;28;20212;-82
2023/06/27 03:19:40;;;;;;;;;;;20.20;69.90;;;-151.14;100.00;62537.16;5091382;28;19920;-82
2023/06/27 03:22:08;;;;;;;;;;;20.20;69.90;;;-151.14;100.00;62537.16;5090738;28;20234;-82
2023/06/27 03:24:38;;;;;;;;;;;20.20;69.90;;;-151.14;100.00;62537.16;5108146;28;19920;-83
2023/06/27 03:27:06;;;;;;;;;;;20.20;69.90;;;-151.14;100.00;62537.16;5092530;28;19920;-83
2023/06/27 03:29:38;;;;;;;;;;;20.20;70.10;;;-151.14;100.00;62537.16;5074528;28;19921;-82
2023/06/27 03:32:07;;;;;;;;;;;20.20;70.00;;;-151.14;100.00;62537.16;5107690;28;19920;-82
2023/06/27 03:34:35;;;;;;;;;;;20.20;70.20;;;-151.14;100.00;62537.16;5090920;28;19920;-82
2023/06/27 03:37:03;;;;;;;;;;;20.20;70.10;;;-151.14;100.00;62537.16;5091300;28;19920;-82
2023/06/27 03:39:31;;;;;;;;;;;20.20;70.20;;;-151.14;100.00;62537.16;5074161;28;19920;-82
2023/06/27 03:42:00;;;;;;;;;;;20.20;70.10;;;-151.14;100.00;62537.16;5107421;28;19920;-82
2023/06/27 03:44:28;;;;;;;;;;;20.20;70.10;;;-151.14;100.00;62537.16;5091126;28;19920;-82
2023/06/27 03:46:56;;;;;;;;;;;20.20;70.10;;;-151.14;100.00;62537.16;5074149;28;19930;-82
2023/06/27 03:49:24;;;;;;;;;;;20.20;70.00;;;-151.14;100.00;62537.16;5074110;28;19920;-82
2023/06/27 03:51:53;;;;;;;;;;;20.20;70.10;;;-151.14;100.00;62537.16;5090485;28;19926;-82
2023/06/27 03:54:21;;;;;;;;;;;20.20;70.00;;;-151.14;100.00;62537.16;5073981;28;19927;-82
2023/06/27 03:56:49;;;;;;;;;;;20.20;70.00;;;-151.14;100.00;62537.16;5090836;28;19942;-82
2023/06/27 03:59:20;;;;;;;;;;;20.20;70.00;;;-151.14;100.00;62537.16;5074039;28;20119;-82
2023/06/27 04:01:51;;;;;;;;;;;20.20;70.10;;;-151.14;100.00;62537.16;5073540;28;20246;-82
2023/06/27 04:04:19;;;;;;;;;;;20.20;70.20;;;-151.14;100.00;62537.16;5090698;28;19921;-82
2023/06/27 04:06:47;;;;;;;;;;;20.20;70.20;;;-151.14;100.00;62537.16;5073695;28;19920;-82
2023/06/27 04:09:15;;;;;;;;;;;20.20;70.30;;;-151.14;100.00;62537.16;5091790;28;19920;-83
2023/06/27 04:11:42;;;;;;;;;;;20.30;70.40;;;-151.14;100.00;62537.16;5089790;28;20116;-82
2023/06/27 04:14:10;;;;;;;;;;;20.30;70.40;;;-151.14;100.00;62537.16;5090057;28;19927;-83
2023/06/27 04:16:40;;;;;;;;;;;20.30;70.30;;;-151.14;100.00;62537.16;5090724;28;19920;-82
2023/06/27 04:19:07;;;;;;;;;;;20.30;70.40;;;-151.14;100.00;62537.16;5090541;28;19920;-82
2023/06/27 04:21:35;;;;;;;;;;;20.30;70.60;;;-151.14;100.00;62537.16;5090050;28;20227;-83
2023/06/27 04:24:04;;;;;;;;;;;20.30;70.40;;;-151.14;100.00;62537.16;5090484;28;19920;-82
2023/06/27 04:26:32;;;;;;;;;;;20.30;70.70;;;-151.14;100.00;62537.16;5073542;28;19926;-82
2023/06/27 04:29:00;;;;;;;;;;;20.20;70.40;;;-151.14;100.00;62537.16;5073754;28;20245;-82
2023/06/27 04:31:27;;;;;;;;;;;20.20;70.70;;;-151.14;100.00;62537.16;5090656;28;19920;-82
2023/06/27 04:33:59;;;;;;;;;;;20.20;70.70;;;-151.14;100.00;62537.16;5090432;28;19926;-83
2023/06/27 04:36:27;;;;;;;;;;;20.30;71.20;;;-151.14;100.00;62537.16;5089979;28;19920;-82
2023/06/27 04:38:55;;;;;;;;;;;20.20;70.90;;;-151.14;100.00;62537.16;5090249;28;19927;-83
2023/06/27 04:41:23;;;;;;;;;;;20.20;71.10;;;-151.14;100.00;62537.16;5089533;28;19920;-82
2023/06/27 04:43:50;;;;;;;;;;;20.20;71.20;;;-151.14;100.00;62537.16;5090224;28;20119;-82
2023/06/27 04:46:18;;;;;;;;;;;20.20;71.60;;;-151.14;100.00;62537.16;5091207;28;20212;-82
2023/06/27 04:48:46;;;;;;;;;;;20.30;72.00;;;-151.14;100.00;62537.16;5091298;28;19927;-83
2023/06/27 04:51:15;;;;;;;;;;;20.30;71.70;;;-151.14;100.00;62537.16;5089543;28;19920;-82
2023/06/27 04:53:43;;;;;;;;;;;20.30;71.50;;;-151.14;100.00;62537.16;5091185;28;19920;-83
2023/06/27 04:56:11;;;;;;;;;;;20.30;71.80;;;-151.14;100.00;62537.16;5090081;28;19927;-83
2023/06/27 04:58:39;;;;;;;;;;;20.30;71.90;;;-151.14;100.00;62537.16;5089982;28;19926;-82
2023/06/27 05:01:07;;;;;;;;;;;20.30;72.30;;;-151.14;100.00;62537.16;5090361;28;19920;-82
2023/06/27 05:03:37;;;;;;;;;;;20.40;72.30;;;-151.14;100.00;62537.16;5091148;28;19920;-82
2023/06/27 05:06:05;;;;;;;;;;;20.40;72.10;;;-151.14;100.00;62537.16;5073033;28;20140;-82
2023/06/27 05:08:36;;;;;;;;;;;20.50;72.10;;;-151.14;100.00;62537.16;5090084;28;19948;-82
2023/06/27 05:11:04;;;;;;;;;;;20.50;72.10;;;-151.14;100.00;62537.16;5106318;28;19920;-82
2023/06/27 05:13:31;;;;;;;;;;;20.60;71.90;;;-151.14;100.00;62537.16;5091022;28;19920;-82
2023/06/27 05:15:59;;;;;;;;;;;20.60;71.60;;;-151.14;100.00;62537.16;5090730;28;19920;-82
2023/06/27 05:18:27;;;;;;;;;;;20.70;71.50;;;-151.14;100.00;62537.16;5072791;28;19927;-82
2023/06/27 05:20:55;;;;;;;;;;;20.70;71.40;;;-151.14;100.00;62537.16;5089818;28;19920;-82
2023/06/27 05:23:23;;;;;;;;;;;20.70;71.30;;;-151.14;100.00;62537.16;5090266;28;19920;-82
2023/06/27 05:25:53;;;;;;;;;;;20.80;71.40;;;-151.14;100.00;62537.16;5091208;28;19920;-82
2023/06/27 05:28:20;;;;;;;;;;;20.80;71.20;;;-151.14;100.00;62537.16;5093363;28;19939;-82
2023/06/27 05:30:48;;;;;;;;;;;20.80;71.30;;;-151.14;100.00;62537.16;5093038;28;19925;-82
2023/06/27 05:33:16;;;;;;;;;;;20.80;71.30;;;-151.14;100.00;62537.16;5093692;28;19942;-82
2023/06/27 05:35:44;;;;;;;;;;;20.90;71.40;;;-151.14;100.00;62537.16;5094038;28;20116;-82
2023/06/27 05:38:12;;;;;;;;;;;20.90;71.60;;;-151.14;100.00;62537.16;5094331;28;19920;-82
2023/06/27 05:40:40;;;;;;;;;;;20.90;71.50;;;-151.14;100.00;62537.16;5092790;28;19920;-82
2023/06/27 05:43:09;;;;;;;;;;;20.90;71.50;;;-151.14;100.00;62537.16;5092453;28;19921;-82
2023/06/27 05:45:37;;;;;;;;;;;20.90;71.50;;;-151.14;100.00;62537.16;5092866;28;19920;-83
2023/06/27 05:48:05;;;;;;;;;;;20.90;71.60;;;-151.14;100.00;62537.16;5094154;28;19926;-83
2023/06/27 05:50:33;;;;;;;;;;;21.00;71.60;;;-151.14;100.00;62537.16;5092857;28;19920;-83
2023/06/27 05:53:01;;;;;;;;;;;21.00;71.70;;;-151.14;100.00;62537.16;5092212;28;19926;-82
2023/06/27 05:55:29;;;;;;;;;;;21.00;71.60;;;-151.14;100.00;62537.16;5075853;28;19930;-83
2023/06/27 05:57:57;;;;;;;;;;;21.00;71.70;;;-151.14;100.00;62537.16;5092926;28;19926;-82
2023/06/27 06:00:26;;;;;;;;;;;21.00;71.70;;;-151.14;100.00;62537.16;5093856;28;19921;-83
2023/06/27 06:02:54;;;;;;;;;;;21.00;71.70;;;-151.14;100.00;62537.16;5091978;28;20097;-82
2023/06/27 06:05:22;;;;;;;;;;;21.10;71.90;;;-151.14;100.00;62537.16;5092587;28;20093;-82
2023/06/27 06:07:50;;;;;;;;;;;21.10;71.80;;;-151.14;100.00;62537.16;5093602;28;19926;-83
2023/06/27 06:10:18;;;;;;;;;;;21.10;71.70;;;-151.14;100.00;62537.16;5092544;28;19926;-83
2023/06/27 06:12:46;;;;;;;;;;;21.20;71.70;;;-151.14;100.00;62537.16;5108700;28;20230;-83
2023/06/27 06:15:14;;;;;;;;;;;21.20;71.50;;;-151.14;100.00;62537.16;5088932;28;20223;-82
2023/06/27 06:17:43;;;;;;;;;;;21.20;71.50;;;-151.14;100.00;62537.16;5072494;28;20094;-82
2023/06/27 06:20:12;;;;;;;;;;;21.30;71.40;;;-151.14;100.00;62537.16;5055729;28;19920;-82
2023/06/27 06:22:39;;;;;;;;;;;21.30;71.30;;;-151.14;100.00;62537.16;5088388;28;19927;-83
2023/06/27 06:25:08;;;;;;;;;;;21.30;71.30;;;-151.14;100.00;62537.16;5073156;28;19946;-82
2023/06/27 06:27:36;;;;;;;;;;;21.40;71.40;;;-151.14;100.00;62537.16;5072095;28;19926;-82
2023/06/27 06:30:04;;;;;;;;;;;21.40;71.20;;;-151.14;100.00;62537.16;5081326;28;19942;-83
2023/06/27 06:32:33;;;;;;;;;;;21.40;71.20;;;-151.14;100.00;62537.16;5092725;28;19920;-83
2023/06/27 06:35:03;;;;;;;;;;;21.50;71.30;;;-151.14;100.00;62537.16;5109000;28;19920;-83
2023/06/27 06:37:31;;;;;;;;;;;21.50;71.20;;;-151.14;100.00;62537.16;5091494;28;19920;-83
2023/06/27 06:39:59;;;;;;;;;;;21.50;71.20;;;-151.14;100.00;62537.16;5109129;28;19927;-83
2023/06/27 06:42:26;;;;;;;;;;;21.50;71.30;;;-151.14;100.00;62537.16;5092360;28;19921;-82
2023/06/27 06:44:54;;;;;;;;;;;21.50;71.10;;;-151.14;100.00;62537.16;5091884;28;19927;-83
2023/06/27 06:47:22;;;;;;;;;;;21.60;71.10;;;-151.14;100.00;62537.16;5091877;28;19920;-83
2023/06/27 06:49:50;;;;;;;;;;;21.60;70.90;;;-151.14;100.00;62537.16;5093272;28;20364;-83
2023/06/27 06:52:19;;;;;;;;;;;21.60;70.90;;;-151.14;100.00;62537.16;5108115;28;20116;-83
2023/06/27 06:54:47;;;;;;;;;;;21.70;70.90;;;-151.14;100.00;62537.16;5092971;28;19926;-82
2023/06/27 06:57:15;;;;;;;;;;;21.70;70.80;;;-151.14;100.00;62537.16;5108517;28;19920;-83
2023/06/27 06:59:44;;;;;;;;;;;21.70;70.80;;;-151.14;100.00;62537.16;5091972;28;19920;-83
2023/06/27 07:02:12;;;;;;;;;;;21.80;70.80;;;-151.14;100.00;62537.16;5092166;28;19926;-83
2023/06/27 07:04:40;;;;;;;;;;;21.80;70.60;;;-151.14;100.00;62537.16;5092744;28;19920;-83
2023/06/27 07:07:07;;;;;;;;;;;21.80;70.50;;;-151.14;100.00;62537.16;5091473;28;19924;-83
2023/06/27 07:09:37;;;;;;;;;;;21.80;70.50;;;-151.14;100.00;62537.16;5108491;28;20231;-83
2023/06/27 07:12:05;;;;;;;;;;;21.80;70.40;;;-151.14;100.00;62537.16;5071953;28;20334;-83
2023/06/27 07:14:33;;;;;;;;;;;21.90;70.40;;;-151.14;100.00;62537.16;5088211;28;19921;-83
2023/06/27 07:17:01;;;;;;;;;;;21.90;70.50;;;-151.14;100.00;62537.16;5071114;28;19921;-83
2023/06/27 07:19:29;;;;;;;;;;;21.90;70.50;;;-151.14;100.00;62537.16;5071266;28;20125;-83
2023/06/27 07:21:56;;;;;;;;;;;21.90;70.30;;;-151.14;100.00;62537.16;5071625;28;20309;-83
2023/06/27 07:24:24;;;;;;;;;;;21.90;70.20;;;-151.14;100.00;62537.16;5072190;28;19942;-82
2023/06/27 07:26:54;;;;;;;;;;;22.00;70.20;;;-151.14;100.00;62537.16;5104398;28;19921;-83
2023/06/27 07:29:22;;;;;;;;;;;22.00;70.20;;;-151.14;100.00;62537.16;5091309;28;19927;-83
2023/06/27 07:31:50;;;;;;;;;;;22.00;70.10;;;-151.14;100.00;62537.16;5091531;28;20142;-83
2023/06/27 07:34:18;;;;;;;;;;;22.00;70.00;;;-151.14;100.00;62537.16;5092481;28;20111;-82
2023/06/27 07:36:47;;;;;;;;;;;22.10;70.10;;;-151.14;100.00;62537.16;5085045;28;20111;-83
2023/06/27 07:39:15;;;;;;;;;;;22.00;69.90;;;-151.14;100.00;62537.16;5091038;28;19927;-83
2023/06/27 07:41:43;;;;;;;;;;;22.10;70.10;;;-151.14;100.00;62537.16;5090589;28;19926;-82
2023/06/27 07:44:12;;;;;;;;;;;22.10;69.90;;;-151.14;100.00;62537.16;5092155;28;19920;-83
2023/06/27 07:46:40;;;;;;;;;;;22.10;69.90;;;-151.14;100.00;62537.16;5074215;28;19920;-83
2023/06/27 07:49:10;;;;;;;;;;;22.10;69.90;;;-151.14;100.00;62537.16;5106214;28;20228;-84
2023/06/27 07:51:38;;;;;;;;;;;22.10;70.80;;;-151.14;100.00;62537.16;5090454;28;19926;-84
2023/06/27 07:54:05;;;;;;;;;;;22.10;69.80;;;-151.14;100.00;62537.16;5074040;28;19920;-84
2023/06/27 07:56:33;;;;;;;;;;;22.10;69.90;;;-151.14;100.00;62537.16;5092028;28;19920;-84
2023/06/27 07:59:02;;;;;;;;;;;22.10;69.80;;;-151.14;100.00;62537.16;5091084;28;19928;-84
2023/06/27 08:01:31;;;;;;;;;;;22.20;69.80;;;-151.14;100.00;62537.16;5107348;28;19927;-84
2023/06/27 08:03:59;;;;;;;;;;;22.20;69.80;;;-151.14;100.00;62537.16;5107628;28;19921;-84
2023/06/27 08:06:27;;;;;;;;;;;22.20;69.80;;;-151.14;100.00;62537.16;5090447;28;19920;-84
2023/06/27 08:08:55;;;;;;;;;;;22.20;69.90;;;-151.14;100.00;62537.16;5091849;28;19927;-84
2023/06/27 08:11:23;;;;;;;;;;;22.10;69.90;;;-151.14;100.00;62537.16;5091189;28;19921;-85
2023/06/27 08:13:51;;;;;;;;;;;22.20;70.00;;;-151.14;100.00;62537.16;5090633;28;19920;-84
2023/06/27 08:16:19;;;;;;;;;;;22.20;69.90;;;-151.14;100.00;62537.16;5090630;28;19920;-84
2023/06/27 08:18:48;;;;;;;;;;;22.20;69.90;;;-151.14;100.00;62537.16;5073629;28;19920;-84
2023/06/27 08:21:16;;;;;;;;;;;22.20;69.90;;;-151.14;100.00;62537.16;5090677;28;19920;-84
2023/06/27 08:23:44;;;;;;;;;;;22.20;70.00;;;-151.14;100.00;62537.16;5091754;28;19920;-84
2023/06/27 08:26:14;;;;;;;;;;;22.20;70.00;;;-151.14;100.00;62537.16;5090148;28;19926;-83
2023/06/27 08:28:42;;;;;;;;;;;22.10;70.00;;;-151.14;100.00;62537.16;5090426;28;19927;-84
2023/06/27 08:31:10;;;;;;;;;;;22.20;70.00;;;-151.14;100.00;62537.16;5089881;28;20212;-84
2023/06/27 08:33:39;;;;;;;;;;;22.20;70.10;;;-151.14;100.00;62537.16;5090022;28;19920;-84
2023/06/27 08:36:08;;;;;;;;;;;22.20;70.10;;;-151.14;100.00;62537.16;5090318;28;20223;-84
2023/06/27 08:38:36;;;;;;;;;;;22.20;70.10;;;-151.14;100.00;62537.16;5090178;28;19920;-84
2023/06/27 08:41:04;;;;;;;;;;;22.10;70.10;;;-151.14;100.00;62537.16;5090075;28;19926;-85
2023/06/27 08:43:32;;;;;;;;;;;22.20;70.00;;;-151.14;100.00;62537.16;5091281;28;20212;-84
2023/06/27 08:45:59;;;;;;;;;;;22.20;70.10;;;-151.14;100.00;62537.16;5089977;28;19920;-85
2023/06/27 08:48:27;;;;;;;;;;;22.20;70.00;;;-151.14;100.00;62537.16;5090086;28;19921;-84
2023/06/27 08:50:56;;;;;;;;;;;22.20;70.00;;;-151.14;100.00;62537.16;5091259;28;19926;-84
2023/06/27 08:53:28;;;;;;;;;;;22.20;70.00;;;-151.14;100.00;62537.16;5072412;28;19926;-84
2023/06/27 08:55:58;;;;;;;;;;;22.20;70.50;;;-151.14;100.00;62537.16;5090083;28;20093;-84
2023/06/27 08:58:28;;;;;;;;;;;22.20;69.90;;;-151.14;100.00;62537.16;5090007;28;19921;-84
2023/06/27 09:00:56;;;;;;;;;;;22.20;69.90;;;-151.14;100.00;62537.16;5075505;28;19920;-84
2023/06/27 09:03:25;;;;;;;;;;;22.20;69.80;;;-151.14;100.00;62537.16;5092865;28;19920;-84
2023/06/27 09:05:52;;;;;;;;;;;22.20;69.80;;;-151.14;100.00;62537.16;5076553;28;19934;-83
2023/06/27 09:08:20;;;;;;;;;;;22.20;69.90;;;-151.14;100.00;62537.16;5093689;28;19927;-84
2023/06/27 09:10:49;;;;;;;;;;;22.20;69.80;;;-151.14;100.00;62537.16;5094534;28;19920;-83
2023/06/27 09:13:17;;;;;;;;;;;22.20;69.90;;;-151.14;100.00;62537.16;5092719;28;19920;-83
2023/06/27 09:15:45;;;;;;;;;;;22.20;69.90;;;-151.14;100.00;62537.16;5076530;28;19920;-83
2023/06/27 09:18:13;;;;;;;;;;;22.20;70.00;;;-151.14;100.00;62537.16;5093338;28;19927;-83
2023/06/27 09:20:41;;;;;;;;;;;22.20;70.00;;;-151.14;100.00;62537.16;5093227;28;19920;-84
2023/06/27 09:23:08;;;;;;;;;;;22.20;70.00;;;-151.14;100.00;62537.16;5092743;28;20111;-83
2023/06/27 09:25:36;;;;;;;;;;;22.20;70.00;;;-151.14;100.00;62537.16;5076236;28;19990;-84
2023/06/27 09:28:16;;;;;;;;;;;22.20;70.00;;;-151.14;100.00;62537.16;5094502;28;19920;-84
2023/06/27 09:30:54;;;;;;;;;;;22.20;70.00;;;-151.14;100.00;62537.16;5094218;28;19927;-85
2023/06/27 09:33:22;;;;;;;;;;;22.20;70.00;;;-151.14;100.00;62537.16;5092637;28;19919;-84
2023/06/27 09:35:50;;;;;;;;;;;22.20;70.00;;;-151.14;100.00;62537.16;5092860;28;19926;-85
2023/06/27 09:38:19;;;;;;;;;;;22.20;69.90;;;-151.14;100.00;62537.16;5093112;28;19920;-84
2023/06/27 09:40:48;;;;;;;;;;;22.20;69.80;;;-151.14;100.00;62537.16;5093060;28;20330;-84
2023/06/27 09:43:17;;;;;;;;;;;22.20;69.30;;;-151.14;100.00;62537.16;5092246;28;19920;-84
2023/06/27 09:45:45;;;;;;;;;;;22.20;69.70;;;-151.14;100.00;62537.16;5075926;28;19920;-84
2023/06/27 09:48:16;;;;;;;;;;;22.20;69.70;;;-151.14;100.00;62537.16;5094156;28;19934;-84
2023/06/27 09:50:44;;;;;;;;;;;22.20;69.80;;;-151.14;100.00;62537.16;5092700;28;19926;-84
2023/06/27 09:53:11;;;;;;;;;;;22.20;69.80;;;-151.14;100.00;62537.16;5093518;28;19926;-84
2023/06/27 09:55:39;;;;;;;;;;;22.20;69.90;;;-151.14;100.00;62537.16;5092666;28;19921;-83
2023/06/27 09:58:07;;;;;;;;;;;22.20;69.90;;;-151.14;100.00;62537.16;5092691;28;19927;-84
2023/06/27 10:00:37;;;;;;;;;;;22.20;69.90;;;-151.14;100.00;62537.16;5075986;28;19920;-84
2023/06/27 10:03:08;;;;;;;;;;;22.20;69.90;;;-151.14;100.00;62537.16;5093147;28;19919;-84
2023/06/27 10:05:36;;;;;;;;;;;22.20;69.90;;;-151.14;100.00;62537.16;5092585;28;19924;-84
2023/06/27 10:08:04;;;;;;;;;;;22.10;70.00;;;-151.14;100.00;62537.16;5092632;28;19943;-85
2023/06/27 10:10:32;;;;;;;;;;;22.10;70.10;;;-151.14;100.00;62537.16;5093705;28;20212;-85
2023/06/27 10:13:00;;;;;;;;;;;22.10;70.00;;;-151.14;100.00;62537.16;5092176;28;19926;-84
2023/06/27 10:15:28;;;;;;;;;;;22.10;70.10;;;-151.14;100.00;62537.16;5075547;28;19921;-84
2023/06/27 10:17:57;;;;;;;;;;;22.10;69.90;;;-151.14;100.00;62537.16;5075721;28;19926;-84
2023/06/27 10:20:25;;;;;;;;;;;22.10;70.00;;;-151.14;100.00;62537.16;5075645;28;20097;-84
2023/06/27 10:22:53;;;;;;;;;;;22.10;70.00;;;-151.14;100.00;62537.16;5091676;28;19920;-85
2023/06/27 10:25:21;;;;;;;;;;;22.10;70.00;;;-151.14;100.00;62537.16;5093505;28;19920;-84
2023/06/27 10:27:49;;;;;;;;;;;22.10;70.00;;;-151.14;100.00;62537.16;5093498;28;20227;-85
2023/06/27 10:30:25;;;;;;;;;;;22.10;70.10;;;-151.14;100.00;62537.16;5075244;28;19927;-85
2023/06/27 10:32:54;;;;;;;;;;;22.10;70.10;;;-151.14;100.00;62537.16;5092972;28;20124;-85
2023/06/27 10:35:27;;;;;;;;;;;22.10;70.10;;;-151.14;100.00;62537.16;5075185;28;19927;-84
2023/06/27 10:38:16;;;;;;;;;;;22.10;70.00;;;-151.14;100.00;62537.16;5092307;28;19920;-84
2023/06/27 10:41:10;;;;;;;;;;;22.10;70.20;;;-151.14;100.00;62537.16;5049256;28;19925;-85
2023/06/27 10:43:38;;;;;;;;;;;22.10;70.30;;;-151.14;100.00;62537.16;5071928;28;19935;-84
2023/06/27 10:46:07;;;;;;;;;;;22.10;70.30;;;-151.14;100.00;62537.16;5072980;28;19920;-84
2023/06/27 10:48:36;;;;;;;;;;;22.10;70.30;;;-151.14;100.00;62537.16;5071923;28;20227;-85
2023/06/27 10:51:06;;;;;;;;;;;22.10;70.30;;;-151.14;100.00;62537.16;5071705;28;19921;-85
2023/06/27 10:53:34;;;;;;;;;;;22.10;70.30;;;-151.14;100.00;62537.16;5071671;28;19927;-86
2023/06/27 10:56:15;;;;;;;;;;;22.10;70.40;;;-151.14;100.00;62537.16;5054926;28;20124;-85
2023/06/27 10:58:46;;;;;;;;;;;22.10;70.30;;;-151.14;100.00;62537.16;5074273;28;20106;-85
2023/06/27 11:01:21;;;;;;;;;;;22.10;70.40;;;-151.14;100.00;62537.16;5092287;28;20104;-85